createdAt,value
2018-11-21T00:00:36.603Z,35.65
2018-11-21T00:03:05.392Z,37.25
2018-11-21T00:05:34.688Z,35.33
2018-11-21T00:08:03.927Z,35.40
2018-11-21T00:10:32.971Z,36.30
2018-11-21T00:13:02.469Z,36.80
2018-11-21T00:15:31.409Z,35.45
2018-11-21T00:18:00.080Z,36.73
2018-11-21T00:20:29.117Z,33.28
2018-11-21T00:22:58.131Z,35.83
2018-11-21T00:25:27.068Z,34.25
2018-11-21T00:27:56.081Z,33.13
2018-11-21T00:30:25.054Z,35.00
2018-11-21T00:32:54.094Z,34.10
2018-11-21T00:35:22.755Z,34.73
2018-11-21T00:37:51.951Z,34.53
2018-11-21T00:40:20.610Z,35.48
2018-11-21T00:42:49.575Z,34.85
2018-11-21T00:45:18.575Z,34.67
2018-11-21T00:47:47.792Z,33.33
2018-11-21T00:50:16.784Z,31.60
2018-11-21T00:52:46.091Z,35.25
2018-11-21T00:55:15.347Z,36.30
2018-11-21T00:57:44.352Z,34.53
2018-11-21T01:00:13.647Z,33.65
2018-11-21T01:02:42.872Z,34.88
2018-11-21T01:05:12.103Z,36.68
2018-11-21T01:07:41.382Z,35.43
2018-11-21T01:10:10.042Z,34.53
2018-11-21T01:12:39.240Z,33.95
2018-11-21T01:15:08.244Z,33.33
2018-11-21T01:17:36.931Z,35.23
2018-11-21T01:20:06.898Z,34.73
2018-11-21T01:22:35.602Z,34.43
2018-11-21T01:25:04.820Z,34.65
2018-11-21T01:27:34.042Z,35.13
2018-11-21T01:30:03.328Z,34.83
2018-11-21T01:32:32.005Z,33.85
2018-11-21T01:35:00.924Z,33.58
2018-11-21T01:37:30.183Z,34.48
2018-11-21T01:39:59.217Z,33.30
2018-11-21T01:42:28.234Z,35.65
2018-11-21T01:44:56.887Z,35.68
2018-11-21T01:47:25.925Z,35.08
2018-11-21T01:49:55.443Z,36.33
2018-11-21T01:52:24.547Z,36.17
2018-11-21T01:54:53.283Z,37.08
2018-11-21T01:57:22.750Z,34.80
2018-11-21T01:59:51.422Z,32.55
2018-11-21T02:02:20.704Z,35.35
2018-11-21T02:04:50.197Z,34.63
2018-11-21T02:07:19.399Z,34.75
2018-11-21T02:09:48.342Z,36.38
2018-11-21T02:12:17.599Z,34.67
2018-11-21T02:14:46.531Z,34.63
2018-11-21T02:17:16.095Z,34.25
2018-11-21T02:19:45.044Z,35.15
2018-11-21T02:22:13.727Z,32.42
2018-11-21T02:24:43.135Z,33.80
2018-11-21T02:27:12.120Z,34.75
2018-11-21T02:29:41.381Z,35.10
2018-11-21T02:32:10.905Z,34.48
2018-11-21T02:34:40.965Z,33.15
2018-11-21T02:37:09.657Z,33.18
2018-11-21T02:39:38.868Z,31.57
2018-11-21T02:42:08.446Z,31.57
2018-11-21T02:44:37.680Z,32.73
2018-11-21T02:47:06.678Z,32.75
2018-11-21T02:49:35.699Z,33.98
2018-11-21T02:52:04.396Z,32.40
2018-11-21T02:54:33.739Z,33.70
2018-11-21T02:57:35.167Z,31.48
2018-11-21T03:00:09.458Z,32.28
2018-11-21T03:02:38.748Z,31.42
2018-11-21T03:05:07.702Z,32.35
2018-11-21T03:07:37.244Z,29.90
2018-11-21T03:10:06.536Z,31.77
2018-11-21T03:12:35.892Z,30.88
2018-11-21T03:15:04.593Z,30.80
2018-11-21T03:17:34.234Z,29.55
2018-11-21T03:20:03.242Z,29.77
2018-11-21T03:22:32.321Z,29.37
2018-11-21T03:25:01.902Z,30.32
2018-11-21T03:27:31.070Z,30.68
2018-11-21T03:29:59.838Z,30.32
2018-11-21T03:32:28.772Z,29.85
2018-11-21T03:34:58.072Z,29.00
2018-11-21T03:37:27.321Z,27.62
2018-11-21T03:39:56.069Z,30.23
2018-11-21T03:42:25.809Z,28.52
2018-11-21T03:44:54.717Z,28.40
2018-11-21T03:47:23.396Z,28.80
2018-11-21T03:49:52.654Z,29.30
2018-11-21T03:52:21.659Z,28.05
2018-11-21T03:54:50.635Z,27.73
2018-11-21T03:57:19.564Z,29.23
2018-11-21T03:59:48.225Z,28.65
2018-11-21T04:02:17.246Z,28.42
2018-11-21T04:04:45.920Z,28.90
2018-11-21T04:07:15.185Z,28.95
2018-11-21T04:09:44.222Z,29.60
2018-11-21T04:12:13.136Z,28.92
2018-11-21T04:14:42.176Z,29.52
2018-11-21T04:17:10.954Z,29.92
2018-11-21T04:19:39.894Z,30.00
2018-11-21T04:22:09.173Z,28.92
2018-11-21T04:24:37.857Z,30.40
2018-11-21T04:27:06.862Z,28.87
2018-11-21T04:29:36.105Z,30.00
2018-11-21T04:32:05.078Z,30.17
2018-11-21T04:34:34.085Z,31.50
2018-11-21T04:37:03.076Z,30.10
2018-11-21T04:39:31.762Z,31.15
2018-11-21T04:42:00.757Z,30.17
2018-11-21T04:44:29.777Z,28.62
2018-11-21T04:46:59.067Z,29.92
2018-11-21T04:49:28.089Z,32.05
2018-11-21T04:51:57.359Z,29.60
2018-11-21T04:54:26.356Z,29.92
2018-11-21T04:56:55.026Z,29.07
2018-11-21T04:59:24.107Z,29.92
2018-11-21T05:01:53.076Z,30.90
2018-11-21T05:04:22.085Z,29.35
2018-11-21T05:06:51.025Z,31.05
2018-11-21T05:09:20.838Z,31.12
2018-11-21T05:11:49.564Z,31.65
2018-11-21T05:14:18.805Z,29.45
2018-11-21T05:16:47.554Z,29.77
2018-11-21T05:19:16.509Z,30.37
2018-11-21T05:21:45.449Z,30.43
2018-11-21T05:24:14.388Z,30.68
2018-11-21T05:26:43.708Z,32.15
2018-11-21T05:29:12.913Z,30.43
2018-11-21T05:31:42.027Z,31.65
2018-11-21T05:34:10.958Z,31.40
2018-11-21T05:36:40.554Z,31.95
2018-11-21T05:39:11.234Z,31.85
2018-11-21T05:41:40.517Z,31.05
2018-11-21T05:44:09.820Z,31.20
2018-11-21T05:46:38.842Z,32.13
2018-11-21T05:49:08.102Z,31.20
2018-11-21T05:51:38.165Z,31.07
2018-11-21T05:54:06.842Z,31.68
2018-11-21T05:56:36.044Z,30.48
2018-11-21T05:59:05.460Z,31.33
2018-11-21T06:01:34.489Z,32.42
2018-11-21T06:04:03.489Z,31.00
2018-11-21T06:06:32.171Z,31.20
2018-11-21T06:09:02.270Z,32.60
2018-11-21T06:11:31.419Z,32.20
2018-11-21T06:14:00.606Z,31.65
2018-11-21T06:16:29.552Z,32.70
2018-11-21T06:18:58.318Z,32.20
2018-11-21T06:21:27.336Z,32.35
2018-11-21T06:23:56.716Z,29.32
2018-11-21T06:26:25.718Z,30.32
2018-11-21T06:28:54.655Z,29.45
2018-11-21T06:31:24.234Z,30.97
2018-11-21T06:33:53.250Z,31.73
2018-11-21T06:36:22.529Z,32.28
2018-11-21T06:38:51.218Z,33.92
2018-11-21T06:41:20.578Z,30.92
2018-11-21T06:43:50.114Z,32.58
2018-11-21T06:46:19.143Z,32.63
2018-11-21T06:48:48.126Z,31.60
2018-11-21T06:51:17.432Z,32.83
2018-11-21T06:53:46.717Z,33.13
2018-11-21T06:56:15.642Z,33.75
2018-11-21T06:58:44.590Z,34.40
2018-11-21T07:01:14.368Z,32.45
2018-11-21T07:03:44.348Z,32.67
2018-11-21T07:06:13.221Z,32.58
2018-11-21T07:08:42.207Z,33.53
2018-11-21T07:11:11.207Z,35.10
2018-11-21T07:13:40.101Z,33.33
2018-11-21T07:16:09.294Z,33.28
2018-11-21T07:18:38.631Z,33.50
2018-11-21T07:21:07.567Z,36.05
2018-11-21T07:23:36.561Z,34.20
2018-11-21T07:26:06.551Z,33.80
2018-11-21T07:28:35.545Z,34.60
2018-11-21T07:31:04.741Z,34.18
2018-11-21T07:33:34.182Z,34.75
2018-11-21T07:36:02.853Z,34.90
2018-11-21T07:38:31.849Z,37.63
2018-11-21T07:41:00.906Z,35.95
2018-11-21T07:43:30.476Z,34.88
2018-11-21T07:46:00.219Z,34.23
2018-11-21T07:48:30.212Z,36.23
2018-11-21T07:51:02.267Z,36.03
2018-11-21T07:53:28.420Z,35.35
2018-11-21T07:55:57.096Z,34.43
2018-11-21T07:58:26.761Z,34.92
2018-11-21T08:01:24.755Z,35.43
2018-11-21T08:03:55.464Z,36.28
2018-11-21T08:06:37.173Z,37.60
2018-11-21T08:09:25.870Z,35.28
2018-11-21T08:12:20.933Z,35.23
2018-11-21T08:15:08.130Z,36.68
2018-11-21T08:17:45.577Z,36.53
2018-11-21T08:20:29.993Z,36.20
2018-11-21T08:23:24.212Z,37.98
2018-11-21T08:26:11.756Z,36.28
2018-11-21T08:28:40.449Z,36.68
2018-11-21T08:31:10.545Z,36.68
2018-11-21T08:33:39.208Z,39.58
2018-11-21T08:36:07.918Z,37.28
2018-11-21T08:38:37.093Z,36.28
2018-11-21T08:41:05.766Z,38.88
2018-11-21T08:43:35.311Z,40.05
2018-11-21T08:46:04.347Z,40.90
2018-11-21T08:48:33.866Z,42.58
2018-11-21T08:51:03.636Z,42.05
2018-11-21T08:53:32.301Z,44.33
2018-11-21T08:56:01.338Z,46.45
2018-11-21T08:58:30.570Z,45.70
2018-11-21T09:00:59.603Z,45.38
2018-11-21T09:03:28.910Z,46.42
2018-11-21T09:05:57.579Z,46.55
2018-11-21T09:08:26.804Z,47.30
2018-11-21T09:10:55.773Z,42.88
2018-11-21T09:13:25.113Z,44.77
2018-11-21T09:15:53.786Z,44.88
2018-11-21T09:18:23.540Z,45.38
2018-11-21T09:20:52.216Z,44.45
2018-11-21T09:23:21.256Z,46.48
2018-11-21T09:25:49.974Z,44.75
2018-11-21T09:28:19.206Z,46.70
2018-11-21T09:30:48.439Z,45.88
2018-11-21T09:33:17.357Z,46.77
2018-11-21T09:35:46.239Z,47.43
2018-11-21T09:38:15.214Z,44.65
2018-11-21T09:40:44.186Z,43.08
2018-11-21T09:43:13.147Z,45.30
2018-11-21T09:45:42.060Z,46.33
2018-11-21T09:48:11.254Z,45.28
2018-11-21T09:50:40.436Z,45.33
2018-11-21T09:53:09.443Z,47.03
2018-11-21T09:55:40.505Z,49.48
2018-11-21T09:58:07.312Z,49.73
2018-11-21T10:01:12.809Z,50.63
2018-11-21T10:03:42.162Z,50.52
2018-11-21T10:06:14.057Z,50.90
2018-11-21T10:08:47.383Z,50.88
2018-11-21T10:11:16.998Z,49.58
2018-11-21T10:13:45.901Z,47.70
2018-11-21T10:16:14.586Z,50.85
2018-11-21T10:18:44.935Z,49.35
2018-11-21T10:21:15.418Z,51.65
2018-11-21T10:23:45.204Z,52.55
2018-11-21T10:26:13.661Z,51.05
2018-11-21T10:28:43.103Z,49.95
2018-11-21T10:31:12.063Z,51.30
2018-11-21T10:33:41.408Z,49.70
2018-11-21T10:36:10.384Z,47.17
2018-11-21T10:38:39.348Z,48.85
2018-11-21T10:41:08.358Z,47.70
2018-11-21T10:43:37.995Z,47.62
2018-11-21T10:46:07.024Z,48.83
2018-11-21T10:48:35.961Z,47.85
2018-11-21T10:51:04.786Z,49.10
2018-11-21T10:53:34.441Z,51.02
2018-11-21T10:56:03.399Z,47.45
2018-11-21T10:58:32.072Z,49.10
2018-11-21T11:01:18.927Z,48.50
2018-11-21T11:04:15.585Z,47.23
2018-11-21T11:07:15.782Z,44.65
2018-11-21T11:10:02.502Z,46.50
2018-11-21T11:12:48.213Z,46.15
2018-11-21T11:15:33.257Z,46.53
2018-11-21T11:18:12.201Z,45.23
2018-11-21T11:21:06.133Z,47.55
2018-11-21T11:23:52.821Z,46.37
2018-11-21T11:26:48.897Z,47.13
2018-11-21T11:29:35.497Z,47.58
2018-11-21T11:32:16.338Z,50.23
2018-11-21T11:34:59.402Z,50.90
2018-11-21T11:37:59.688Z,53.85
2018-11-21T11:40:46.233Z,50.92
2018-11-21T11:43:24.456Z,48.73
2018-11-21T11:46:09.491Z,50.48
2018-11-21T11:48:57.983Z,50.90
2018-11-21T11:51:44.787Z,52.67
2018-11-21T11:54:21.957Z,48.95
2018-11-21T11:57:16.063Z,51.02
2018-11-21T12:00:03.384Z,50.15
2018-11-21T12:03:00.458Z,50.43
2018-11-21T12:05:51.257Z,48.30
2018-11-21T12:08:45.258Z,50.55
2018-11-21T12:11:32.227Z,49.60
2018-11-21T12:14:13.896Z,46.80
2018-11-21T12:17:01.891Z,47.38
2018-11-21T12:19:55.780Z,48.08
2018-11-21T12:22:46.876Z,47.88
2018-11-21T12:25:37.853Z,48.58
2018-11-21T12:28:34.222Z,46.83
2018-11-21T12:31:25.305Z,48.20
2018-11-21T12:34:10.759Z,49.42
2018-11-21T12:37:01.456Z,50.00
2018-11-21T12:39:37.206Z,46.95
2018-11-21T12:42:23.908Z,45.85
2018-11-21T12:45:10.116Z,50.00
2018-11-21T12:47:57.004Z,50.10
2018-11-21T12:50:46.273Z,48.10
2018-11-21T12:53:27.022Z,47.73
2018-11-21T12:56:14.172Z,48.90
2018-11-21T12:59:10.939Z,48.58
2018-11-21T13:02:01.995Z,49.03
2018-11-21T13:04:48.292Z,48.52
2018-11-21T13:07:23.091Z,46.42
2018-11-21T13:10:15.795Z,50.17
2018-11-21T13:12:53.218Z,47.93
2018-11-21T13:15:43.249Z,45.55
2018-11-21T13:18:25.219Z,47.78
2018-11-21T13:21:08.079Z,47.38
2018-11-21T13:23:49.730Z,45.90
2018-11-21T13:26:36.577Z,45.60
2018-11-21T13:29:33.764Z,43.85
2018-11-21T13:32:20.152Z,44.65
2018-11-21T13:35:02.639Z,46.90
2018-11-21T13:37:57.245Z,47.08
2018-11-21T13:41:03.009Z,46.42
2018-11-21T13:43:41.170Z,47.48
2018-11-21T13:46:27.812Z,43.92
2018-11-21T13:49:15.174Z,44.33
2018-11-21T13:52:03.077Z,44.63
2018-11-21T13:54:49.288Z,44.70
2018-11-21T13:57:19.170Z,45.15
2018-11-21T13:59:48.097Z,46.58
2018-11-21T14:02:17.333Z,44.35
2018-11-21T14:04:46.338Z,44.70
2018-11-21T14:07:15.036Z,45.00
2018-11-21T14:09:44.001Z,47.20
2018-11-21T14:12:12.998Z,47.27
2018-11-21T14:14:41.908Z,47.80
2018-11-21T14:17:11.160Z,46.40
2018-11-21T14:19:40.375Z,46.37
2018-11-21T14:22:09.057Z,44.85
2018-11-21T14:24:37.732Z,46.88
2018-11-21T14:27:06.454Z,46.28
2018-11-21T14:29:35.437Z,47.38
2018-11-21T14:32:04.540Z,45.75
2018-11-21T14:34:33.803Z,46.68
2018-11-21T14:37:03.058Z,47.00
2018-11-21T14:39:32.025Z,46.08
2018-11-21T14:42:00.958Z,45.40
2018-11-21T14:44:29.998Z,47.62
2018-11-21T14:46:59.285Z,45.15
2018-11-21T14:49:27.980Z,44.08
2018-11-21T14:51:57.391Z,45.20
2018-11-21T14:54:26.686Z,44.40
2018-11-21T14:56:55.855Z,46.00
2018-11-21T14:59:24.578Z,45.85
2018-11-21T15:01:53.576Z,44.13
2018-11-21T15:04:22.562Z,44.42
2018-11-21T15:06:51.541Z,45.88
2018-11-21T15:09:20.269Z,43.75
2018-11-21T15:11:49.584Z,45.98
2018-11-21T15:14:18.530Z,43.80
2018-11-21T15:16:47.196Z,44.40
2018-11-21T15:19:16.217Z,44.50
2018-11-21T15:21:45.501Z,45.10
2018-11-21T15:24:14.497Z,42.73
2018-11-21T15:26:43.487Z,44.00
2018-11-21T15:29:12.670Z,46.53
2018-11-21T15:31:41.398Z,45.52
2018-11-21T15:34:10.717Z,46.70
2018-11-21T15:36:39.702Z,46.00
2018-11-21T15:39:09.501Z,46.42
2018-11-21T15:41:38.591Z,45.33
2018-11-21T15:44:07.265Z,44.98
2018-11-21T15:46:36.197Z,44.45
2018-11-21T15:49:05.541Z,45.50
2018-11-21T15:51:34.492Z,47.15
2018-11-21T15:54:03.236Z,45.45
2018-11-21T15:56:32.204Z,45.55
2018-11-21T15:59:01.176Z,46.58
2018-11-21T16:01:30.093Z,46.65
2018-11-21T16:03:59.368Z,45.90
2018-11-21T16:06:28.250Z,46.30
2018-11-21T16:08:57.246Z,44.50
2018-11-21T16:11:26.124Z,46.95
2018-11-21T16:13:55.125Z,47.75
2018-11-21T16:16:23.935Z,47.50
2018-11-21T16:18:52.941Z,48.05
2018-11-21T16:21:21.616Z,47.03
2018-11-21T16:23:50.880Z,48.90
2018-11-21T16:26:19.619Z,46.85
2018-11-21T16:28:48.613Z,49.85
2018-11-21T16:31:17.674Z,46.68
2018-11-21T16:33:46.343Z,46.83
2018-11-21T16:36:15.388Z,49.53
2018-11-21T16:38:44.315Z,51.33
2018-11-21T16:41:13.311Z,44.63
2018-11-21T16:43:41.966Z,46.98
2018-11-21T16:46:11.208Z,49.13
2018-11-21T16:48:39.929Z,47.78
2018-11-21T16:51:08.959Z,46.23
2018-11-21T16:53:38.507Z,47.00
2018-11-21T16:56:07.809Z,47.20
2018-11-21T16:58:37.181Z,46.53
2018-11-21T17:01:05.882Z,47.05
2018-11-21T17:03:35.167Z,46.50
2018-11-21T17:06:03.921Z,48.95
2018-11-21T17:08:33.463Z,49.45
2018-11-21T17:11:02.824Z,48.28
2018-11-21T17:13:31.790Z,51.15
2018-11-21T17:16:00.477Z,45.90
2018-11-21T17:18:29.177Z,46.05
2018-11-21T17:20:58.138Z,46.13
2018-11-21T17:23:27.130Z,48.45
2018-11-21T17:25:56.154Z,46.88
2018-11-21T17:28:24.836Z,46.70
2018-11-21T17:30:54.092Z,46.23
2018-11-21T17:33:23.435Z,45.80
2018-11-21T17:35:52.403Z,46.28
2018-11-21T17:38:21.364Z,45.35
2018-11-21T17:40:50.691Z,46.65
2018-11-21T17:43:19.961Z,45.52
2018-11-21T17:45:49.011Z,45.92
2018-11-21T17:48:18.234Z,45.98
2018-11-21T17:50:47.199Z,43.87
2018-11-21T17:53:15.938Z,44.48
2018-11-21T17:55:44.947Z,45.35
2018-11-21T17:58:14.004Z,44.85
2018-11-21T18:00:42.689Z,45.23
2018-11-21T18:03:11.699Z,47.98
2018-11-21T18:05:41.290Z,46.88
2018-11-21T18:08:09.976Z,45.52
2018-11-21T18:10:40.543Z,45.05
2018-11-21T18:13:09.566Z,47.10
2018-11-21T18:15:38.614Z,45.98
2018-11-21T18:18:07.280Z,46.80
2018-11-21T18:20:36.245Z,46.75
2018-11-21T18:23:04.944Z,48.50
2018-11-21T18:25:44.438Z,47.95
2018-11-21T18:28:13.810Z,48.52
2018-11-21T18:30:42.751Z,46.80
2018-11-21T18:33:12.030Z,51.60
2018-11-21T18:35:40.401Z,48.15
2018-11-21T18:38:09.540Z,51.23
2018-11-21T18:40:39.297Z,49.18
2018-11-21T18:43:08.085Z,49.18
2018-11-21T18:45:41.224Z,51.23
2018-11-21T18:48:11.234Z,51.10
2018-11-21T18:50:40.227Z,49.18
2018-11-21T18:53:09.685Z,52.20
2018-11-21T18:55:40.703Z,52.00
2018-11-21T18:58:37.535Z,50.50
2018-11-21T19:01:06.494Z,51.37
2018-11-21T19:03:35.462Z,50.15
2018-11-21T19:06:04.487Z,51.58
2018-11-21T19:08:34.104Z,44.90
2018-11-21T19:11:03.313Z,50.23
2018-11-21T19:13:32.437Z,49.18
2018-11-21T19:16:01.408Z,50.80
2018-11-21T19:18:30.663Z,47.73
2018-11-21T19:21:00.397Z,48.60
2018-11-21T19:23:29.064Z,48.60
2018-11-21T19:25:57.739Z,49.88
2018-11-21T19:28:26.490Z,48.92
2018-11-21T19:30:55.683Z,51.28
2018-11-21T19:33:24.999Z,49.95
2018-11-21T19:35:54.202Z,49.85
2018-11-21T19:38:23.170Z,52.05
2018-11-21T19:40:51.854Z,49.75
2018-11-21T19:43:20.788Z,47.48
2018-11-21T19:45:49.790Z,48.02
2018-11-21T19:48:18.509Z,49.00
2018-11-21T19:50:47.566Z,47.33
2018-11-21T19:53:16.526Z,48.35
2018-11-21T19:55:45.219Z,45.95
2018-11-21T19:58:14.277Z,45.17
2018-11-21T20:00:43.441Z,46.88
2018-11-21T20:03:12.393Z,45.38
2018-11-21T20:05:41.419Z,45.35
2018-11-21T20:08:10.657Z,43.58
2018-11-21T20:10:39.344Z,43.58
2018-11-21T20:13:08.037Z,41.95
2018-11-21T20:15:37.012Z,44.13
2018-11-21T20:18:06.092Z,44.77
2018-11-21T20:20:35.587Z,46.02
2018-11-21T20:23:06.588Z,44.65
2018-11-21T20:25:33.786Z,42.90
2018-11-21T20:28:02.483Z,44.83
2018-11-21T20:30:33.488Z,44.35
2018-11-21T20:33:02.767Z,43.78
2018-11-21T20:35:31.983Z,45.48
2018-11-21T20:38:01.380Z,47.53
2018-11-21T20:40:32.222Z,43.98
2018-11-21T20:43:01.284Z,43.20
2018-11-21T20:45:30.427Z,46.55
2018-11-21T20:48:00.116Z,46.88
2018-11-21T20:50:29.053Z,45.43
2018-11-21T20:52:58.079Z,42.85
2018-11-21T20:55:28.735Z,44.05
2018-11-21T20:57:57.990Z,45.58
2018-11-21T21:00:28.163Z,44.88
2018-11-21T21:02:56.844Z,46.28
2018-11-21T21:05:26.456Z,42.93
2018-11-21T21:07:56.414Z,41.13
2018-11-21T21:10:30.100Z,41.53
2018-11-21T21:12:58.901Z,39.03
2018-11-21T21:15:27.559Z,44.70
2018-11-21T21:17:56.240Z,40.92
2018-11-21T21:20:26.862Z,41.63
2018-11-21T21:22:57.618Z,39.40
2018-11-21T21:25:28.018Z,42.43
2018-11-21T21:27:57.338Z,40.15
2018-11-21T21:30:27.857Z,46.30
2018-11-21T21:32:56.575Z,45.55
2018-11-21T21:35:26.440Z,45.63
2018-11-21T21:37:55.393Z,46.63
2018-11-21T21:40:24.583Z,45.90
2018-11-21T21:42:53.566Z,44.13
2018-11-21T21:45:24.051Z,43.52
2018-11-21T21:47:52.830Z,42.43
2018-11-21T21:50:23.779Z,43.98
2018-11-21T21:52:52.459Z,42.58
2018-11-21T21:55:22.373Z,43.17
2018-11-21T21:57:51.078Z,44.42
2018-11-21T22:00:23.946Z,42.43
2018-11-21T22:02:53.171Z,42.50
2018-11-21T22:05:22.174Z,44.73
2018-11-21T22:07:51.384Z,45.52
2018-11-21T22:10:20.835Z,44.45
2018-11-21T22:12:49.519Z,42.75
2018-11-21T22:15:28.347Z,41.13
2018-11-21T22:17:58.885Z,41.45
2018-11-21T22:20:27.859Z,42.70
2018-11-21T22:22:57.083Z,41.28
2018-11-21T22:25:26.160Z,42.25
2018-11-21T22:27:55.427Z,43.13
2018-11-21T22:30:24.466Z,41.80
2018-11-21T22:32:54.215Z,42.65
2018-11-21T22:35:25.090Z,42.53
2018-11-21T22:37:53.746Z,43.23
2018-11-21T22:40:23.182Z,44.60
2018-11-21T22:42:52.241Z,41.70
2018-11-21T22:45:21.924Z,43.40
2018-11-21T22:47:50.890Z,40.48
2018-11-21T22:50:23.388Z,40.17
2018-11-21T22:52:52.312Z,40.88
2018-11-21T22:55:21.745Z,42.08
2018-11-21T22:57:51.260Z,41.00
2018-11-21T23:00:22.483Z,42.13
2018-11-21T23:02:51.410Z,42.93
2018-11-21T23:05:20.415Z,43.20
2018-11-21T23:07:50.456Z,43.92
2018-11-21T23:10:26.757Z,42.98
2018-11-21T23:12:55.635Z,45.65
2018-11-21T23:15:24.598Z,43.48
2018-11-21T23:17:53.282Z,42.10
2018-11-21T23:20:21.946Z,41.65
2018-11-21T23:22:50.922Z,41.90
2018-11-21T23:25:20.474Z,42.40
2018-11-21T23:27:49.492Z,41.70
2018-11-21T23:30:19.362Z,43.05
2018-11-21T23:32:48.306Z,42.23
2018-11-21T23:35:18.313Z,43.45
2018-11-21T23:37:47.009Z,45.25
2018-11-21T23:40:16.853Z,42.60
2018-11-21T23:42:50.487Z,42.93
2018-11-21T23:45:19.468Z,42.03
2018-11-21T23:47:48.523Z,42.98
2018-11-21T23:50:18.422Z,39.55
2018-11-21T23:52:47.696Z,40.73
2018-11-21T23:55:19.990Z,40.12
2018-11-21T23:57:48.659Z,40.05
